Time;durP1;ratioP1;P1;durP2;ratioP2;P2;SDS_P1;SDS_P2;PMS_P1;PMS_P2;Temp;Humidity;BMP_temperature;BMP_pressure;BME280_temperature;BME280_humidity;BME280_pressure;Samples;Min_cycle;Max_cycle;Signal;HPM_P1;HPM_P2
2023/02/03 00:01:52;;;;;;;;;;;;;;;1.94;100.00;99324.29;68053;1275;1016133;-59
2023/02/03 00:04:55;;;;;;;;;;;;;;;1.93;100.00;99329.31;68047;1275;1016583;-59
2023/02/03 00:07:57;;;;;;;;;;;;;;;1.85;100.00;99332.73;68010;1275;1017375;-59
2023/02/03 00:10:59;;;;;;;;;;;;;;;1.88;100.00;99338.54;67732;1275;1016072;-59
2023/02/03 00:14:04;;;;;;;;;;;;;;;1.89;100.00;99344.38;67964;1275;1016458;-59
2023/02/03 00:17:06;;;;;;;;;;;;;;;1.94;100.00;99344.48;68028;1275;1016453;-60
2023/02/03 00:20:09;;;;;;;;;;;;;;;1.97;100.00;99348.04;67990;1275;1016455;-60
2023/02/03 00:23:11;;;;;;;;;;;;;;;1.95;100.00;99354.27;68034;1275;1016615;-59
2023/02/03 00:26:13;;;;;;;;;;;;;;;1.94;100.00;99345.84;68088;1275;1016747;-59
2023/02/03 00:29:24;;;;;;;;;;;;;;;1.98;100.00;99350.27;67947;1275;1016164;-59
2023/02/03 00:32:27;;;;;;;;;;;;;;;1.90;100.00;99351.45;67944;1275;1016339;-59
2023/02/03 00:35:30;;;;;;;;;;;;;;;1.75;100.00;99353.26;68075;1275;1018009;-59
2023/02/03 00:38:32;;;;;;;;;;;;;;;1.63;100.00;99354.98;68026;1275;1016235;-59
2023/02/03 00:41:34;;;;;;;;;;;;;;;1.62;100.00;99352.77;67995;1275;1016183;-59
2023/02/03 00:44:37;;;;;;;;;;;;;;;1.58;100.00;99353.86;68027;1275;1016285;-59
2023/02/03 00:47:39;;;;;;;;;;;;;;;1.48;100.00;99351.95;68082;1275;1016311;-59
2023/02/03 00:50:42;;;;;;;;;;;;;;;1.46;100.00;99353.53;68076;1275;1016013;-59
2023/02/03 00:53:44;;;;;;;;;;;;;;;1.53;100.00;99358.92;68023;1275;1016432;-59
2023/02/03 00:56:46;;;;;;;;;;;;;;;1.49;100.00;99362.79;68025;1275;1016338;-59
2023/02/03 00:59:49;;;;;;;;;;;;;;;1.46;100.00;99361.64;67994;1275;1016414;-59
2023/02/03 01:02:51;;;;;;;;;;;;;;;1.51;100.00;99364.83;68053;1275;1016351;-59
2023/02/03 01:05:54;;;;;;;;;;;;;;;1.45;100.00;99368.37;68076;1275;1016431;-59
2023/02/03 01:08:56;;;;;;;;;;;;;;;1.39;100.00;99369.33;68037;1275;1016697;-59
2023/02/03 01:11:58;;;;;;;;;;;;;;;1.46;100.00;99361.12;67993;1275;1016353;-59
2023/02/03 01:15:01;;;;;;;;;;;;;;;1.41;100.00;99356.70;68013;1275;1016280;-59
2023/02/03 01:18:03;;;;;;;;;;;;;;;1.44;100.00;99357.88;67981;1275;1016369;-59
2023/02/03 01:21:06;;;;;;;;;;;;;;;1.37;100.00;99359.68;68067;1275;1016181;-59
2023/02/03 01:24:09;;;;;;;;;;;;;;;1.34;100.00;99358.71;68025;1275;1015809;-59
2023/02/03 01:27:11;;;;;;;;;;;;;;;1.33;100.00;99366.14;68110;1275;1016524;-59
2023/02/03 01:30:14;;;;;;;;;;;;;;;1.34;100.00;99369.90;68054;1275;1016480;-59
2023/02/03 01:33:16;;;;;;;;;;;;;;;1.31;100.00;99368.23;68018;1275;1016381;-59
2023/02/03 01:36:19;;;;;;;;;;;;;;;1.33;100.00;99364.92;67992;1275;1016383;-59
2023/02/03 01:39:21;;;;;;;;;;;;;;;1.36;100.00;99358.86;68021;1275;1016356;-59
2023/02/03 01:42:23;;;;;;;;;;;;;;;1.35;100.00;99351.98;68047;1275;1016465;-59
2023/02/03 01:45:26;;;;;;;;;;;;;;;1.30;100.00;99361.88;68070;1275;1016372;-59
2023/02/03 01:48:28;;;;;;;;;;;;;;;1.32;100.00;99362.35;68061;1275;1016819;-59
2023/02/03 01:51:30;;;;;;;;;;;;;;;1.31;100.00;99360.13;67999;1275;1016120;-59
2023/02/03 01:54:33;;;;;;;;;;;;;;;1.34;100.00;99350.61;67977;1275;1016337;-59
2023/02/03 01:57:35;;;;;;;;;;;;;;;1.32;100.00;99341.52;68037;1275;1017149;-59
2023/02/03 02:00:38;;;;;;;;;;;;;;;1.31;100.00;99335.15;68057;1275;1016468;-59
2023/02/03 02:03:40;;;;;;;;;;;;;;;1.36;100.00;99336.27;68066;1275;1016426;-59
2023/02/03 02:06:44;;;;;;;;;;;;;;;1.35;100.00;99335.26;67981;1275;1016371;-59
2023/02/03 02:09:46;;;;;;;;;;;;;;;1.32;100.00;99341.15;68068;1275;1016189;-59
2023/02/03 02:12:49;;;;;;;;;;;;;;;1.32;100.00;99339.09;67964;1275;1018049;-59
2023/02/03 02:15:51;;;;;;;;;;;;;;;1.35;100.00;99327.50;67986;1275;1016249;-59
2023/02/03 02:18:53;;;;;;;;;;;;;;;1.27;100.00;99330.22;68040;1275;1016360;-59
2023/02/03 02:21:56;;;;;;;;;;;;;;;1.22;100.00;99324.77;68065;1275;1016585;-59
2023/02/03 02:24:58;;;;;;;;;;;;;;;1.29;100.00;99325.18;68038;1275;1016419;-59
2023/02/03 02:28:01;;;;;;;;;;;;;;;1.31;100.00;99321.36;67996;1275;1016463;-59
2023/02/03 02:31:03;;;;;;;;;;;;;;;1.35;100.00;99314.40;67990;1275;1017117;-59
2023/02/03 02:34:06;;;;;;;;;;;;;;;1.43;100.00;99320.30;68074;1275;1016307;-59
2023/02/03 02:37:08;;;;;;;;;;;;;;;1.40;100.00;99320.89;68030;1275;1017667;-59
2023/02/03 02:40:10;;;;;;;;;;;;;;;1.43;100.00;99319.79;68051;1275;1016385;-59
2023/02/03 02:43:13;;;;;;;;;;;;;;;1.44;100.00;99322.37;68040;1275;1016446;-59
2023/02/03 02:46:15;;;;;;;;;;;;;;;1.39;100.00;99320.38;68019;1275;1016276;-59
2023/02/03 02:49:17;;;;;;;;;;;;;;;1.33;100.00;99313.24;67992;1275;1016378;-59
2023/02/03 02:52:20;;;;;;;;;;;;;;;1.30;100.00;99306.91;68059;1275;1016135;-59
2023/02/03 02:55:23;;;;;;;;;;;;;;;1.35;100.00;99300.46;68072;1275;1016539;-59
2023/02/03 02:58:25;;;;;;;;;;;;;;;1.30;100.00;99296.56;68001;1275;1016017;-59
2023/02/03 03:01:28;;;;;;;;;;;;;;;1.26;100.00;99287.66;68050;1275;1016793;-59
2023/02/03 03:04:30;;;;;;;;;;;;;;;1.23;100.00;99285.13;68021;1275;1016450;-59
2023/02/03 03:07:33;;;;;;;;;;;;;;;1.26;100.00;99276.99;68026;1275;1016294;-59
2023/02/03 03:10:35;;;;;;;;;;;;;;;1.27;100.00;99283.19;68028;1275;1016852;-59
2023/02/03 03:13:37;;;;;;;;;;;;;;;1.22;100.00;99292.04;68014;1275;1016342;-59
2023/02/03 03:16:40;;;;;;;;;;;;;;;1.18;100.00;99291.93;67986;1275;1018696;-59
2023/02/03 03:19:42;;;;;;;;;;;;;;;1.17;100.00;99306.93;68015;1275;1017964;-59
2023/02/03 03:22:44;;;;;;;;;;;;;;;1.21;100.00;99315.48;68034;1275;1016278;-60
2023/02/03 03:25:47;;;;;;;;;;;;;;;1.26;100.00;99317.30;68014;1275;1016413;-59
2023/02/03 03:28:49;;;;;;;;;;;;;;;1.33;100.00;99316.67;68008;1275;1016401;-59
2023/02/03 03:31:52;;;;;;;;;;;;;;;1.48;100.00;99319.20;67955;1275;1016456;-59
2023/02/03 03:34:54;;;;;;;;;;;;;;;1.52;100.00;99319.65;67984;1275;1016212;-59
2023/02/03 03:37:56;;;;;;;;;;;;;;;1.63;100.00;99316.20;67988;1275;1016386;-59
2023/02/03 03:40:59;;;;;;;;;;;;;;;1.72;100.00;99305.36;68035;1275;1016376;-59
2023/02/03 03:44:01;;;;;;;;;;;;;;;1.71;100.00;99297.27;68023;1275;1016654;-59
2023/02/03 03:47:04;;;;;;;;;;;;;;;1.66;100.00;99288.91;68011;1275;1016335;-59
2023/02/03 03:50:06;;;;;;;;;;;;;;;1.54;100.00;99286.70;67981;1275;1016420;-59
2023/02/03 03:53:09;;;;;;;;;;;;;;;1.43;100.00;99277.58;68003;1275;1015882;-59
2023/02/03 03:56:12;;;;;;;;;;;;;;;1.44;100.00;99274.28;68066;1275;1020115;-59
2023/02/03 03:59:15;;;;;;;;;;;;;;;1.35;100.00;99274.43;68023;1275;1016242;-59
2023/02/03 04:02:17;;;;;;;;;;;;;;;1.29;100.00;99266.26;68059;1275;1016513;-59
2023/02/03 04:05:20;;;;;;;;;;;;;;;1.28;100.00;99271.61;68053;1275;1017297;-59
2023/02/03 04:08:22;;;;;;;;;;;;;;;1.23;100.00;99274.96;68034;1275;1015694;-59
2023/02/03 04:14:44;;;;;;;;;;;;;;;1.19;100.00;99293.46;68015;1275;1016475;-59
2023/02/03 04:17:47;;;;;;;;;;;;;;;1.09;100.00;99301.55;67998;1275;1016351;-59
2023/02/03 04:20:49;;;;;;;;;;;;;;;1.09;100.00;99297.40;68006;1275;1016013;-59
2023/02/03 04:23:52;;;;;;;;;;;;;;;1.09;100.00;99290.52;68055;1275;1018429;-59
2023/02/03 04:26:54;;;;;;;;;;;;;;;0.98;100.00;99283.61;68053;1275;1018782;-59
2023/02/03 04:29:57;;;;;;;;;;;;;;;0.97;100.00;99285.70;68022;1275;1016218;-60
2023/02/03 04:32:59;;;;;;;;;;;;;;;0.93;100.00;99280.23;67987;1275;1016432;-59
2023/02/03 04:36:02;;;;;;;;;;;;;;;0.94;100.00;99275.75;68059;1275;1016564;-59
2023/02/03 04:39:04;;;;;;;;;;;;;;;0.95;100.00;99274.70;68055;1275;1016497;-59
2023/02/03 04:42:06;;;;;;;;;;;;;;;1.00;100.00;99272.39;68024;1275;1016367;-59
2023/02/03 04:45:09;;;;;;;;;;;;;;;1.02;100.00;99273.21;67999;1275;1016484;-59
2023/02/03 04:48:11;;;;;;;;;;;;;;;1.02;100.00;99272.70;67992;1275;1016599;-59
2023/02/03 04:51:14;;;;;;;;;;;;;;;0.93;100.00;99276.12;68034;1275;1016126;-59
2023/02/03 04:54:16;;;;;;;;;;;;;;;0.90;100.00;99273.22;68052;1275;1016442;-59
2023/02/03 04:57:18;;;;;;;;;;;;;;;0.94;100.00;99266.63;68048;1275;1016335;-59
2023/02/03 05:00:21;;;;;;;;;;;;;;;0.92;100.00;99264.41;68042;1275;1016155;-59
2023/02/03 05:03:23;;;;;;;;;;;;;;;0.82;100.00;99255.61;68011;1275;1016474;-59
2023/02/03 05:06:26;;;;;;;;;;;;;;;0.82;100.00;99246.30;67991;1275;1016387;-59
2023/02/03 05:09:28;;;;;;;;;;;;;;;0.83;100.00;99243.18;68041;1275;1016358;-59
2023/02/03 05:12:30;;;;;;;;;;;;;;;0.82;100.00;99239.25;68055;1275;1015740;-59
2023/02/03 05:15:33;;;;;;;;;;;;;;;0.81;100.00;99239.77;68084;1275;1016520;-59
2023/02/03 05:18:35;;;;;;;;;;;;;;;0.88;100.00;99230.38;68019;1275;1016419;-59
2023/02/03 05:21:38;;;;;;;;;;;;;;;0.92;100.00;99225.33;68005;1275;1016183;-59
2023/02/03 05:24:40;;;;;;;;;;;;;;;0.96;100.00;99224.58;68053;1275;1016579;-59
2023/02/03 05:27:42;;;;;;;;;;;;;;;0.93;100.00;99219.96;68067;1275;1016181;-59
2023/02/03 05:30:45;;;;;;;;;;;;;;;0.93;100.00;99217.39;68031;1275;1016207;-59
2023/02/03 05:33:47;;;;;;;;;;;;;;;0.89;100.00;99210.21;68022;1275;1016444;-59
2023/02/03 05:36:50;;;;;;;;;;;;;;;0.87;100.00;99206.80;68007;1275;1016462;-59
2023/02/03 05:39:52;;;;;;;;;;;;;;;0.90;100.00;99204.35;68038;1275;1017075;-59
2023/02/03 05:42:55;;;;;;;;;;;;;;;0.88;100.00;99202.82;68035;1275;1016169;-59
2023/02/03 05:45:57;;;;;;;;;;;;;;;0.93;100.00;99203.10;68010;1275;1016324;-59
2023/02/03 05:49:00;;;;;;;;;;;;;;;1.05;100.00;99197.73;67989;1275;1016420;-59
2023/02/03 05:52:02;;;;;;;;;;;;;;;1.07;100.00;99195.12;68002;1275;1016460;-59
2023/02/03 05:55:04;;;;;;;;;;;;;;;1.05;100.00;99189.47;68026;1275;1016351;-59
2023/02/03 05:58:07;;;;;;;;;;;;;;;1.05;100.00;99187.56;68047;1275;1016374;-59
2023/02/03 06:01:10;;;;;;;;;;;;;;;1.04;100.00;99184.30;68043;1275;1016507;-59
2023/02/03 06:04:12;;;;;;;;;;;;;;;1.08;100.00;99174.42;68033;1275;1017408;-60
2023/02/03 06:07:15;;;;;;;;;;;;;;;1.07;100.00;99170.83;68002;1275;1016110;-59
2023/02/03 06:10:17;;;;;;;;;;;;;;;1.08;100.00;99166.34;68038;1275;1016980;-59
2023/02/03 06:13:20;;;;;;;;;;;;;;;1.12;100.00;99162.30;68048;1275;1016863;-59
2023/02/03 06:16:23;;;;;;;;;;;;;;;1.22;100.00;99159.54;68047;1275;1016138;-59
2023/02/03 06:19:26;;;;;;;;;;;;;;;1.15;100.00;99154.50;68059;1275;1016094;-59
2023/02/03 06:22:28;;;;;;;;;;;;;;;1.06;100.00;99157.06;68008;1275;1016473;-59
2023/02/03 06:25:31;;;;;;;;;;;;;;;1.00;100.00;99151.83;68026;1274;1017951;-59
2023/02/03 06:28:37;;;;;;;;;;;;;;;0.99;100.00;99146.34;67980;1275;1016252;-60
2023/02/03 06:31:39;;;;;;;;;;;;;;;1.05;100.00;99141.23;68015;1275;1016300;-59
2023/02/03 06:34:41;;;;;;;;;;;;;;;1.10;100.00;99135.81;68034;1275;1016226;-59
2023/02/03 06:37:44;;;;;;;;;;;;;;;1.11;100.00;99128.06;68046;1275;1016226;-59
2023/02/03 06:40:46;;;;;;;;;;;;;;;1.17;100.00;99126.89;68029;1275;1016142;-59
2023/02/03 06:43:48;;;;;;;;;;;;;;;1.19;100.00;99123.77;68007;1275;1016199;-59
2023/02/03 06:46:51;;;;;;;;;;;;;;;1.21;100.00;99119.77;67998;1275;1016406;-59
2023/02/03 06:49:53;;;;;;;;;;;;;;;1.25;100.00;99120.39;68022;1275;1017152;-59
2023/02/03 06:52:56;;;;;;;;;;;;;;;1.25;100.00;99119.89;67960;1275;1016890;-59
2023/02/03 06:56:00;;;;;;;;;;;;;;;1.29;100.00;99119.64;68004;1275;1016812;-59
2023/02/03 06:59:03;;;;;;;;;;;;;;;1.33;100.00;99115.59;67960;1275;1017052;-59
2023/02/03 07:02:05;;;;;;;;;;;;;;;1.35;100.00;99108.33;67947;1275;1016487;-59
2023/02/03 07:05:08;;;;;;;;;;;;;;;1.45;100.00;99101.40;68050;1275;1016433;-59
2023/02/03 07:08:10;;;;;;;;;;;;;;;1.54;100.00;99100.54;68053;1275;1016433;-59
2023/02/03 07:11:12;;;;;;;;;;;;;;;1.62;100.00;99098.32;68002;1275;1016601;-59
2023/02/03 07:14:15;;;;;;;;;;;;;;;1.62;100.00;99088.15;68000;1275;1016556;-59
2023/02/03 07:17:17;;;;;;;;;;;;;;;1.67;100.00;99085.45;68034;1275;1016872;-60
2023/02/03 07:20:20;;;;;;;;;;;;;;;1.90;100.00;99081.52;68037;1275;1018832;-59
2023/02/03 07:23:22;;;;;;;;;;;;;;;2.04;100.00;99080.02;68050;1275;1016481;-59
2023/02/03 07:26:25;;;;;;;;;;;;;;;2.15;100.00;99075.46;68049;1275;1019260;-59
2023/02/03 07:29:27;;;;;;;;;;;;;;;2.22;100.00;99067.52;67996;1275;1018832;-59
2023/02/03 07:32:30;;;;;;;;;;;;;;;2.31;100.00;99056.30;67985;1275;1016480;-59
2023/02/03 07:35:32;;;;;;;;;;;;;;;2.40;100.00;99048.48;68025;1275;1016498;-59
2023/02/03 07:38:36;;;;;;;;;;;;;;;2.48;100.00;99050.36;68055;1275;1016478;-59
2023/02/03 07:41:39;;;;;;;;;;;;;;;2.50;100.00;99042.88;68035;1275;1016474;-59
2023/02/03 07:44:41;;;;;;;;;;;;;;;2.54;100.00;99037.25;67911;1275;1016201;-59
2023/02/03 07:47:44;;;;;;;;;;;;;;;2.59;100.00;99032.48;67974;1275;1016323;-59
2023/02/03 07:50:46;;;;;;;;;;;;;;;2.60;100.00;99026.23;68001;1275;1016217;-59
2023/02/03 07:53:48;;;;;;;;;;;;;;;2.58;100.00;99024.90;68011;1275;1016508;-59
2023/02/03 07:56:51;;;;;;;;;;;;;;;2.58;100.00;99014.52;68030;1275;1016222;-59
2023/02/03 07:59:53;;;;;;;;;;;;;;;2.70;100.00;99005.23;68038;1275;1016436;-59
2023/02/03 08:02:56;;;;;;;;;;;;;;;2.72;100.00;99000.70;67964;1275;1016194;-59
2023/02/03 08:05:58;;;;;;;;;;;;;;;2.62;100.00;98991.81;67980;1275;1016478;-59
2023/02/03 08:09:01;;;;;;;;;;;;;;;2.56;100.00;98989.56;68039;1275;1016469;-59
2023/02/03 08:12:03;;;;;;;;;;;;;;;2.59;100.00;98979.65;68003;1275;1016416;-59
2023/02/03 08:15:05;;;;;;;;;;;;;;;2.66;100.00;98976.88;68025;1275;1016311;-59
2023/02/03 08:18:08;;;;;;;;;;;;;;;2.67;100.00;98972.35;67966;1275;1016268;-59
2023/02/03 08:21:13;;;;;;;;;;;;;;;2.67;100.00;98963.55;68012;1275;1016671;-59
2023/02/03 08:24:15;;;;;;;;;;;;;;;2.71;100.00;98960.85;68042;1275;1016375;-59
2023/02/03 08:27:18;;;;;;;;;;;;;;;2.72;100.00;98958.40;68000;1275;1016223;-59
2023/02/03 08:30:20;;;;;;;;;;;;;;;2.83;100.00;98952.05;67955;1275;1016427;-59
2023/02/03 08:33:22;;;;;;;;;;;;;;;2.96;100.00;98950.16;67951;1275;1016380;-59
2023/02/03 08:36:25;;;;;;;;;;;;;;;3.00;100.00;98943.84;68042;1275;1015862;-59
2023/02/03 08:39:29;;;;;;;;;;;;;;;3.00;100.00;98937.41;68026;1275;1016443;-59
2023/02/03 08:42:31;;;;;;;;;;;;;;;3.13;100.00;98928.25;67992;1275;1016429;-60
2023/02/03 08:45:34;;;;;;;;;;;;;;;3.25;100.00;98921.85;67998;1275;1016368;-59
2023/02/03 08:48:36;;;;;;;;;;;;;;;3.40;100.00;98915.36;67979;1275;1016375;-59
2023/02/03 08:51:39;;;;;;;;;;;;;;;3.50;100.00;98905.89;67999;1275;1016328;-59
2023/02/03 08:54:41;;;;;;;;;;;;;;;3.67;100.00;98904.31;68022;1275;1016488;-59
2023/02/03 08:57:44;;;;;;;;;;;;;;;3.73;100.00;98898.09;67998;1275;1016389;-59
2023/02/03 09:00:48;;;;;;;;;;;;;;;3.67;100.00;98890.84;67986;1275;1016478;-59
2023/02/03 09:03:51;;;;;;;;;;;;;;;3.63;100.00;98873.31;67947;1275;1016307;-59
2023/02/03 09:06:53;;;;;;;;;;;;;;;3.70;100.00;98872.94;67967;1275;1016502;-59
2023/02/03 09:09:56;;;;;;;;;;;;;;;3.73;100.00;98869.88;68014;1275;1016204;-59
2023/02/03 09:12:58;;;;;;;;;;;;;;;3.76;100.00;98864.60;67971;1275;1016455;-59
2023/02/03 09:16:01;;;;;;;;;;;;;;;3.87;100.00;98865.64;67945;1275;1016485;-59
2023/02/03 09:19:03;;;;;;;;;;;;;;;3.87;100.00;98870.65;67970;1275;1016468;-59
2023/02/03 09:22:06;;;;;;;;;;;;;;;3.96;100.00;98865.67;67994;1275;1016352;-59
2023/02/03 09:25:11;;;;;;;;;;;;;;;4.00;100.00;98858.27;67943;1275;1016327;-59
2023/02/03 09:28:13;;;;;;;;;;;;;;;4.08;100.00;98854.55;67940;1275;1016452;-59
2023/02/03 09:31:16;;;;;;;;;;;;;;;4.14;100.00;98847.41;68006;1275;1016448;-59
2023/02/03 09:34:19;;;;;;;;;;;;;;;4.18;100.00;98842.45;67959;1275;1016656;-59
2023/02/03 09:37:21;;;;;;;;;;;;;;;4.24;100.00;98839.11;67915;1275;1016779;-59
2023/02/03 09:40:24;;;;;;;;;;;;;;;4.20;100.00;98828.01;67995;1275;1016317;-59
2023/02/03 09:43:26;;;;;;;;;;;;;;;4.25;100.00;98822.13;67996;1275;1016359;-59
2023/02/03 09:46:29;;;;;;;;;;;;;;;4.26;100.00;98816.55;67941;1275;1016478;-59
2023/02/03 09:49:31;;;;;;;;;;;;;;;4.29;100.00;98812.27;67973;1275;1016101;-59
2023/02/03 09:52:33;;;;;;;;;;;;;;;4.29;100.00;98804.66;67953;1275;1016619;-59
2023/02/03 09:55:36;;;;;;;;;;;;;;;4.33;100.00;98800.20;67989;1275;1018774;-59
2023/02/03 09:58:38;;;;;;;;;;;;;;;4.36;100.00;98792.68;67989;1275;1016779;-59
2023/02/03 10:01:41;;;;;;;;;;;;;;;4.42;100.00;98787.75;67952;1275;1016488;-59
2023/02/03 10:04:43;;;;;;;;;;;;;;;4.36;100.00;98779.84;67952;1275;1016297;-59
2023/02/03 10:07:45;;;;;;;;;;;;;;;4.30;100.00;98770.85;67934;1275;1016140;-59
2023/02/03 10:10:48;;;;;;;;;;;;;;;4.25;100.00;98765.17;67937;1275;1016471;-59
2023/02/03 10:13:50;;;;;;;;;;;;;;;4.18;100.00;98762.32;67985;1275;1016347;-59
2023/02/03 10:16:53;;;;;;;;;;;;;;;4.22;100.00;98753.86;67987;1275;1016213;-59
2023/02/03 10:19:55;;;;;;;;;;;;;;;4.28;100.00;98738.43;67920;1275;1016425;-59
2023/02/03 10:22:59;;;;;;;;;;;;;;;4.31;100.00;98728.07;67987;1275;1016293;-59
2023/02/03 10:26:01;;;;;;;;;;;;;;;4.40;100.00;98715.10;67914;1275;1016595;-60
2023/02/03 10:29:03;;;;;;;;;;;;;;;4.40;100.00;98710.27;67972;1275;1016382;-59
2023/02/03 10:32:07;;;;;;;;;;;;;;;4.39;100.00;98705.27;67965;1275;1016065;-59
2023/02/03 10:35:10;;;;;;;;;;;;;;;4.38;100.00;98694.40;67942;1275;1018718;-59
2023/02/03 10:38:12;;;;;;;;;;;;;;;4.40;100.00;98694.02;67968;1275;1016402;-59
2023/02/03 10:41:14;;;;;;;;;;;;;;;4.36;100.00;98685.13;67951;1275;1015718;-59
2023/02/03 10:44:17;;;;;;;;;;;;;;;4.27;100.00;98673.70;67988;1275;1016424;-59
2023/02/03 10:47:19;;;;;;;;;;;;;;;4.00;100.00;98662.08;68001;1275;1016428;-59
2023/02/03 10:50:22;;;;;;;;;;;;;;;3.76;100.00;98648.55;67970;1275;1016319;-59
2023/02/03 10:53:24;;;;;;;;;;;;;;;3.65;100.00;98641.02;67968;1275;1016461;-59
2023/02/03 10:56:26;;;;;;;;;;;;;;;3.60;100.00;98628.73;67944;1275;1016459;-59
2023/02/03 10:59:29;;;;;;;;;;;;;;;3.58;100.00;98620.87;67959;1275;1016182;-59
2023/02/03 11:02:31;;;;;;;;;;;;;;;3.59;100.00;98604.23;68005;1275;1016505;-59
2023/02/03 11:05:34;;;;;;;;;;;;;;;3.59;100.00;98593.68;67992;1275;1016519;-59
2023/02/03 11:08:36;;;;;;;;;;;;;;;3.61;100.00;98587.35;67943;1275;1016472;-59
2023/02/03 11:11:40;;;;;;;;;;;;;;;3.60;100.00;98575.13;67943;1275;1016094;-59
2023/02/03 11:14:44;;;;;;;;;;;;;;;3.54;100.00;98563.42;67958;1275;1016465;-60
2023/02/03 11:17:46;;;;;;;;;;;;;;;3.47;100.00;98550.36;67959;1275;1016492;-59
2023/02/03 11:20:48;;;;;;;;;;;;;;;3.55;100.00;98538.67;67961;1275;1016153;-59
2023/02/03 11:23:51;;;;;;;;;;;;;;;3.58;100.00;98518.32;67987;1275;1016457;-59
2023/02/03 11:26:53;;;;;;;;;;;;;;;3.61;100.00;98505.06;67998;1275;1016216;-59
2023/02/03 11:29:56;;;;;;;;;;;;;;;3.60;100.00;98493.86;68035;1275;1016567;-59
2023/02/03 11:32:58;;;;;;;;;;;;;;;3.63;100.00;98484.93;67992;1275;1016810;-59
2023/02/03 11:36:01;;;;;;;;;;;;;;;3.63;100.00;98471.98;67961;1275;1016410;-59
2023/02/03 11:39:03;;;;;;;;;;;;;;;3.66;100.00;98455.78;67973;1275;1016479;-59
2023/02/03 11:42:05;;;;;;;;;;;;;;;3.73;100.00;98442.88;67950;1275;1016508;-59
2023/02/03 11:45:08;;;;;;;;;;;;;;;3.75;100.00;98425.86;68019;1275;1016454;-59
2023/02/03 11:48:10;;;;;;;;;;;;;;;3.85;100.00;98413.36;68014;1275;1016190;-59
2023/02/03 11:51:13;;;;;;;;;;;;;;;3.81;100.00;98401.91;67955;1275;1016510;-59
2023/02/03 11:54:15;;;;;;;;;;;;;;;3.81;100.00;98386.69;67992;1275;1016034;-59
2023/02/03 11:57:18;;;;;;;;;;;;;;;3.76;100.00;98373.42;68001;1275;1016144;-59
2023/02/03 12:00:24;;;;;;;;;;;;;;;3.71;100.00;98358.75;68008;1275;1017686;-59
2023/02/03 12:03:27;;;;;;;;;;;;;;;3.69;100.00;98350.33;67950;1275;1016471;-59
2023/02/03 12:06:29;;;;;;;;;;;;;;;3.71;100.00;98341.27;67968;1275;1016129;-59
2023/02/03 12:09:31;;;;;;;;;;;;;;;3.74;100.00;98334.73;67986;1275;1016167;-59
2023/02/03 12:12:34;;;;;;;;;;;;;;;3.66;100.00;98317.95;65673;1275;5387039;-59
2023/02/03 12:15:37;;;;;;;;;;;;;;;3.64;100.00;98311.97;67947;1275;1016870;-59
2023/02/03 12:18:39;;;;;;;;;;;;;;;3.67;100.00;98300.98;67966;1275;1016466;-59
2023/02/03 12:21:42;;;;;;;;;;;;;;;3.69;100.00;98294.13;67995;1275;1016246;-59
2023/02/03 12:24:44;;;;;;;;;;;;;;;3.61;100.00;98286.86;67993;1275;1016532;-59
2023/02/03 12:27:47;;;;;;;;;;;;;;;3.66;100.00;98278.53;67925;1275;1016249;-59
2023/02/03 12:30:49;;;;;;;;;;;;;;;3.69;100.00;98265.81;67970;1275;1016789;-59
2023/02/03 12:33:51;;;;;;;;;;;;;;;3.65;100.00;98257.14;67961;1275;1016840;-60
2023/02/03 12:36:54;;;;;;;;;;;;;;;3.55;100.00;98246.13;67974;1275;1016460;-59
2023/02/03 12:39:57;;;;;;;;;;;;;;;3.45;100.00;98231.52;67945;1275;1016479;-59
2023/02/03 12:42:59;;;;;;;;;;;;;;;3.39;100.00;98213.96;67975;1275;1016695;-59
2023/02/03 12:46:02;;;;;;;;;;;;;;;3.33;100.00;98204.34;68034;1275;1016504;-59
2023/02/03 12:49:04;;;;;;;;;;;;;;;3.30;100.00;98199.11;67998;1275;1016486;-59
2023/02/03 12:52:06;;;;;;;;;;;;;;;3.27;100.00;98184.54;67981;1275;1016443;-59
2023/02/03 12:55:09;;;;;;;;;;;;;;;3.26;100.00;98176.48;67921;1275;1016285;-59
2023/02/03 12:58:11;;;;;;;;;;;;;;;3.23;100.00;98171.92;67967;1275;1016505;-59
2023/02/03 13:01:14;;;;;;;;;;;;;;;3.31;100.00;98170.73;67998;1275;1016276;-59
2023/02/03 13:04:16;;;;;;;;;;;;;;;3.40;100.00;98162.39;67997;1275;1016295;-59
2023/02/03 13:07:19;;;;;;;;;;;;;;;3.20;100.00;98148.54;68019;1275;1016768;-59
2023/02/03 13:10:22;;;;;;;;;;;;;;;3.15;100.00;98143.23;67986;1275;1015983;-59
2023/02/03 13:13:24;;;;;;;;;;;;;;;3.13;100.00;98133.65;68006;1275;1016307;-59
2023/02/03 13:16:27;;;;;;;;;;;;;;;3.09;100.00;98119.46;67971;1275;1016454;-59
2023/02/03 13:19:29;;;;;;;;;;;;;;;3.00;100.00;98115.68;67973;1275;1016431;-59
2023/02/03 13:22:32;;;;;;;;;;;;;;;2.94;100.00;98102.29;67986;1275;1019009;-59
2023/02/03 13:25:34;;;;;;;;;;;;;;;2.91;100.00;98089.09;67998;1275;1016397;-59
2023/02/03 13:28:37;;;;;;;;;;;;;;;2.89;100.00;98074.86;68024;1275;1016131;-59
2023/02/03 13:31:39;;;;;;;;;;;;;;;2.88;100.00;98060.22;68002;1275;1016485;-59
2023/02/03 13:34:41;;;;;;;;;;;;;;;2.90;100.00;98050.11;67992;1275;1016361;-59
2023/02/03 13:37:44;;;;;;;;;;;;;;;2.85;100.00;98042.58;67971;1275;1019428;-59
2023/02/03 13:40:46;;;;;;;;;;;;;;;2.91;100.00;98030.40;67974;1275;1016899;-59
2023/02/03 13:43:49;;;;;;;;;;;;;;;2.88;100.00;98017.05;68008;1275;1016426;-59
2023/02/03 13:46:51;;;;;;;;;;;;;;;2.75;100.00;98006.03;67986;1275;1016516;-59
2023/02/03 13:49:54;;;;;;;;;;;;;;;2.80;100.00;98000.11;67930;1275;1016438;-59
2023/02/03 13:52:56;;;;;;;;;;;;;;;2.67;100.00;97995.99;67952;1275;1016592;-59
2023/02/03 13:55:58;;;;;;;;;;;;;;;2.69;100.00;97984.52;68033;1275;1015809;-59
2023/02/03 13:59:01;;;;;;;;;;;;;;;2.69;100.00;97978.33;68031;1275;1016692;-59
2023/02/03 14:02:03;;;;;;;;;;;;;;;2.75;100.00;97970.30;67988;1275;1016055;-59
2023/02/03 14:05:06;;;;;;;;;;;;;;;2.71;100.00;97957.52;67972;1275;1016422;-59
2023/02/03 14:08:08;;;;;;;;;;;;;;;2.65;100.00;97944.33;67965;1275;1016377;-59
2023/02/03 14:11:11;;;;;;;;;;;;;;;2.64;100.00;97936.77;67986;1275;1016018;-59
2023/02/03 14:14:13;;;;;;;;;;;;;;;2.63;100.00;97928.19;68007;1275;1016457;-59
2023/02/03 14:17:15;;;;;;;;;;;;;;;2.61;100.00;97922.38;68050;1275;1016936;-59
2023/02/03 14:20:18;;;;;;;;;;;;;;;2.60;100.00;97919.84;67992;1275;1016221;-59
2023/02/03 14:23:20;;;;;;;;;;;;;;;2.55;100.00;97910.04;67983;1275;1016787;-59
2023/02/03 14:26:23;;;;;;;;;;;;;;;2.53;100.00;97904.44;67985;1275;1016439;-59
2023/02/03 14:29:25;;;;;;;;;;;;;;;2.49;100.00;97895.27;67979;1275;1016356;-59
2023/02/03 14:32:28;;;;;;;;;;;;;;;2.43;100.00;97884.99;68037;1275;1016181;-59
2023/02/03 14:35:30;;;;;;;;;;;;;;;2.43;100.00;97877.25;67991;1275;1016468;-59
2023/02/03 14:38:33;;;;;;;;;;;;;;;2.45;100.00;97869.72;67988;1275;1016283;-59
2023/02/03 14:41:35;;;;;;;;;;;;;;;2.46;100.00;97862.64;68004;1275;1016056;-59
2023/02/03 14:44:37;;;;;;;;;;;;;;;2.48;100.00;97855.30;68023;1275;1016403;-59
2023/02/03 14:47:40;;;;;;;;;;;;;;;2.48;100.00;97850.47;68011;1275;1016322;-59
2023/02/03 14:50:42;;;;;;;;;;;;;;;2.50;100.00;97840.20;67983;1275;1016486;-59
2023/02/03 14:53:45;;;;;;;;;;;;;;;2.46;100.00;97829.66;67996;1275;1016401;-59
2023/02/03 15:00:09;;;;;;;;;;;;;;;2.43;100.00;97824.25;68035;1275;1016654;-58
2023/02/03 15:03:13;;;;;;;;;;;;;;;2.41;100.00;97817.28;68026;1275;1016226;-59
2023/02/03 15:06:16;;;;;;;;;;;;;;;2.39;100.00;97817.17;68007;1275;1018146;-59
2023/02/03 15:09:18;;;;;;;;;;;;;;;2.46;100.00;97813.44;68020;1275;1016358;-58
2023/02/03 15:12:21;;;;;;;;;;;;;;;2.52;100.00;97812.65;68011;1275;1016714;-58
2023/02/03 15:15:23;;;;;;;;;;;;;;;2.56;100.00;97797.63;68029;1275;1016452;-58
2023/02/03 15:18:26;;;;;;;;;;;;;;;2.59;100.00;97792.83;68049;1275;1016575;-58
2023/02/03 15:21:28;;;;;;;;;;;;;;;2.65;100.00;97781.03;68051;1275;1016472;-59
2023/02/03 15:24:31;;;;;;;;;;;;;;;2.70;100.00;97795.77;67970;1275;1016294;-58
2023/02/03 15:27:33;;;;;;;;;;;;;;;2.71;100.00;97774.69;67970;1275;1016506;-59
2023/02/03 15:30:36;;;;;;;;;;;;;;;2.66;100.00;97790.12;68039;1275;1017023;-59
2023/02/03 15:33:38;;;;;;;;;;;;;;;2.65;100.00;97786.73;68036;1275;1016309;-59